Time;durP1;ratioP1;P1;durP2;ratioP2;P2;SDS_P1;SDS_P2;PMS_P1;PMS_P2;Temp;Humidity;BMP_temperature;BMP_pressure;BME280_temperature;BME280_humidity;BME280_pressure;Samples;Min_cycle;Max_cycle;Signal;HPM_P1;HPM_P2
2023/02/22 00:02:27;;;;;;;15.10;8.50;;;;;;;7.36;100.00;100326.96;186286;1234;44038;-86
2023/02/22 00:06:29;;;;;;;19.10;9.80;;;;;;;7.38;100.00;100325.77;186285;1233;44192;-86
2023/02/22 00:10:33;;;;;;;14.90;8.50;;;;;;;7.42;100.00;100330.61;186582;1233;43891;-86
2023/02/22 00:14:35;;;;;;;19.00;8.00;;;;;;;7.43;100.00;100332.84;186355;1234;58395;-86
2023/02/22 00:18:36;;;;;;;16.70;7.70;;;;;;;7.47;100.00;100333.30;186319;1234;43756;-86
2023/02/22 00:22:40;;;;;;;15.40;9.10;;;;;;;7.44;100.00;100334.34;186264;1234;43935;-85
2023/02/22 00:26:41;;;;;;;16.80;7.10;;;;;;;7.41;100.00;100339.65;186522;1232;44077;-85
2023/02/22 00:30:43;;;;;;;19.50;7.90;;;;;;;7.40;100.00;100336.92;186555;1234;43837;-85
2023/02/22 00:34:45;;;;;;;13.30;8.20;;;;;;;7.41;100.00;100337.39;186296;1235;59647;-85
2023/02/22 00:38:46;;;;;;;13.60;7.10;;;;;;;7.41;100.00;100336.14;186248;1233;43928;-85
2023/02/22 00:42:48;;;;;;;22.10;8.20;;;;;;;7.51;100.00;100334.95;186270;1233;43878;-85
2023/02/22 00:46:50;;;;;;;18.10;7.80;;;;;;;7.61;100.00;100336.20;186372;1234;44139;-85
2023/02/22 00:50:53;;;;;;;19.60;9.60;;;;;;;7.67;100.00;100338.11;186204;1233;43731;-86
2023/02/22 00:54:56;;;;;;;16.90;9.80;;;;;;;7.76;100.00;100333.23;186621;1233;59184;-87
2023/02/22 00:58:59;;;;;;;15.40;7.10;;;;;;;7.84;100.00;100329.30;186444;1234;43694;-86
2023/02/22 01:03:01;;;;;;;13.40;6.30;;;;;;;7.85;100.00;100329.20;186678;1234;44079;-87
2023/02/22 01:07:03;;;;;;;16.10;5.50;;;;;;;7.85;100.00;100329.95;186728;1234;43983;-87
2023/02/22 01:11:04;;;;;;;15.70;6.80;;;;;;;7.86;100.00;100334.66;186437;1234;43701;-86
2023/02/22 01:15:11;;;;;;;18.70;6.50;;;;;;;7.89;100.00;100339.44;186618;1235;57787;-87
2023/02/22 01:19:12;;;;;;;14.90;6.70;;;;;;;7.86;100.00;100340.64;186481;1234;43989;-87
2023/02/22 01:23:16;;;;;;;10.70;6.00;;;;;;;7.86;100.00;100341.23;186768;1235;43627;-87
2023/02/22 01:27:17;;;;;;;15.30;6.10;;;;;;;7.87;100.00;100341.52;186334;1235;44261;-85
2023/02/22 01:31:19;;;;;;;15.00;5.90;;;;;;;7.84;100.00;100335.28;186453;1234;43932;-85
2023/02/22 01:35:26;;;;;;;19.20;7.20;;;;;;;7.83;100.00;100331.36;186666;1233;58148;-85
2023/02/22 01:39:28;;;;;;;11.00;6.10;;;;;;;7.71;100.00;100337.45;186436;1233;43711;-85
2023/02/22 01:43:31;;;;;;;11.10;6.20;;;;;;;7.58;100.00;100344.14;186435;1235;43918;-85
2023/02/22 01:47:33;;;;;;;12.20;6.80;;;;;;;7.59;100.00;100334.73;186422;1234;43683;-85
2023/02/22 01:51:42;;;;;;;12.10;6.60;;;;;;;7.66;100.00;100335.30;186445;1233;43652;-85
2023/02/22 01:55:46;;;;;;;10.80;5.20;;;;;;;7.71;100.00;100338.56;186659;1235;57376;-85
2023/02/22 01:59:51;;;;;;;8.90;5.10;;;;;;;7.79;100.00;100329.14;186620;1233;44191;-85
2023/02/22 02:03:57;;;;;;;9.80;5.10;;;;;;;7.83;100.00;100326.58;186473;1232;44020;-85
2023/02/22 02:08:04;;;;;;;10.80;5.50;;;;;;;7.85;100.00;100324.69;186455;1234;43749;-85
2023/02/22 02:12:09;;;;;;;13.70;6.80;;;;;;;7.81;100.00;100331.09;186271;1234;44073;-85
2023/02/22 02:16:11;;;;;;;9.30;5.70;;;;;;;7.64;100.00;100336.18;186328;1235;57260;-85
2023/02/22 02:20:22;;;;;;;8.30;5.90;;;;;;;7.68;100.00;100327.44;186547;1235;43653;-85
2023/02/22 02:24:33;;;;;;;17.10;6.30;;;;;;;7.78;100.00;100323.02;186581;1233;44025;-86
2023/02/22 02:28:49;;;;;;;13.40;6.60;;;;;;;7.90;100.00;100324.35;186721;1233;44025;-86
2023/02/22 02:32:54;;;;;;;18.80;8.30;;;;;;;7.96;100.00;100323.73;186478;1235;43909;-87
2023/02/22 02:37:18;;;;;;;9.20;6.30;;;;;;;7.94;100.00;100320.02;186126;1235;59724;-86
2023/02/22 02:41:40;;;;;;;12.70;5.60;;;;;;;7.93;100.00;100325.53;186260;1237;44097;-86
2023/02/22 02:46:01;;;;;;;18.00;6.20;;;;;;;7.96;100.00;100324.61;186212;1235;43979;-86
2023/02/22 02:50:12;;;;;;;17.30;6.90;;;;;;;8.00;100.00;100317.61;186288;1235;43712;-85
2023/02/22 02:54:14;;;;;;;13.70;5.50;;;;;;;8.01;100.00;100321.07;186253;1234;43859;-86
2023/02/22 02:58:19;;;;;;;10.00;5.70;;;;;;;8.01;100.00;100321.23;186162;1234;59305;-86
2023/02/22 03:02:37;;;;;;;10.30;5.90;;;;;;;7.96;100.00;100320.71;186485;1235;44167;-86
2023/02/22 03:06:57;;;;;;;9.20;5.70;;;;;;;7.98;100.00;100323.81;186561;1233;43607;-85
2023/02/22 03:11:16;;;;;;;15.00;5.80;;;;;;;7.98;100.00;100323.24;186347;1235;43810;-85
2023/02/22 03:15:24;;;;;;;17.90;6.90;;;;;;;7.94;100.00;100325.83;186333;1233;44028;-85
2023/02/22 03:19:33;;;;;;;14.10;6.50;;;;;;;7.91;100.00;100327.45;186435;1234;59015;-85
2023/02/22 03:23:47;;;;;;;13.90;6.40;;;;;;;7.87;100.00;100324.21;186313;1235;43717;-86
2023/02/22 03:27:53;;;;;;;14.40;5.80;;;;;;;7.88;100.00;100321.84;186316;1233;44167;-86
2023/02/22 03:32:00;;;;;;;;;;;;;;;7.94;100.00;100325.61;186235;1235;43972;-86
2023/02/22 03:36:28;;;;;;;11.60;5.40;;;;;;;8.02;100.00;100326.14;186344;1234;43413;-86
2023/02/22 03:40:35;;;;;;;13.80;5.80;;;;;;;8.07;100.00;100320.33;186323;1233;57859;-86
2023/02/22 03:44:39;;;;;;;14.60;5.90;;;;;;;8.03;100.00;100318.50;186417;1232;234312;-86
2023/02/22 03:48:53;;;;;;;15.10;6.40;;;;;;;7.98;100.00;100323.45;186372;1233;43669;-85
2023/02/22 03:52:57;;;;;;;16.60;6.30;;;;;;;7.94;100.00;100328.45;186674;1232;43971;-86
2023/02/22 03:57:21;;;;;;;15.20;5.00;;;;;;;7.98;100.00;100331.00;186445;1235;43701;-87
2023/02/22 04:01:23;;;;;;;11.60;5.30;;;;;;;8.00;100.00;100330.36;186628;1233;58228;-86
2023/02/22 04:11:00;;;;;;;13.00;5.80;;;;;;;8.07;100.00;100328.79;186623;1233;43960;-87
2023/02/22 04:15:03;;;;;;;14.70;5.60;;;;;;;8.07;100.00;100330.40;186379;1234;44143;-87
2023/02/22 04:19:05;;;;;;;22.50;5.40;;;;;;;8.07;100.00;100331.11;186491;1232;43657;-87
2023/02/22 04:23:07;;;;;;;20.10;4.40;;;;;;;8.05;100.00;100331.72;186314;1233;58042;-87
2023/02/22 04:27:10;;;;;;;9.60;4.30;;;;;;;8.02;100.00;100330.92;186465;1234;44051;-87
2023/02/22 04:31:12;;;;;;;16.40;5.30;;;;;;;7.98;100.00;100328.01;186446;1234;43734;-87
2023/02/22 04:35:14;;;;;;;15.70;6.00;;;;;;;7.93;100.00;100325.90;186450;1234;43713;-87
2023/02/22 04:39:16;;;;;;;11.80;5.30;;;;;;;7.91;100.00;100319.50;186565;1234;43927;-86
2023/02/22 04:43:18;;;;;;;12.10;5.70;;;;;;;7.92;100.00;100321.38;186418;1235;57960;-86
2023/02/22 04:47:20;;;;;;;11.30;6.70;;;;;;;7.92;100.00;100322.23;186333;1233;43905;-86
2023/02/22 04:51:21;;;;;;;10.00;5.00;;;;;;;7.91;100.00;100325.54;186375;1233;43946;-86
2023/02/22 04:55:23;;;;;;;8.00;4.90;;;;;;;7.88;100.00;100323.40;186373;1234;43959;-86
2023/02/22 04:59:25;;;;;;;14.40;5.90;;;;;;;7.86;100.00;100320.35;186362;1234;44042;-87
2023/02/22 05:03:27;;;;;;;8.00;4.20;;;;;;;7.89;100.00;100320.04;186080;1234;59283;-88
2023/02/22 05:07:31;;;;;;;8.60;5.00;;;;;;;7.98;100.00;100315.31;186439;1234;43851;-90
2023/02/22 05:11:33;;;;;;;14.10;6.30;;;;;;;8.06;100.00;100311.39;186411;1235;44112;-87
2023/02/22 05:15:35;;;;;;;12.40;5.20;;;;;;;8.09;100.00;100313.27;186404;1235;43753;-87
2023/02/22 05:19:37;;;;;;;12.50;5.00;;;;;;;8.10;100.00;100310.39;186307;1234;43838;-88
2023/02/22 05:23:40;;;;;;;12.80;4.80;;;;;;;8.23;100.00;100310.70;186325;1234;58335;-87
2023/02/22 05:27:42;;;;;;;8.10;4.90;;;;;;;8.33;100.00;100306.65;186189;1234;43894;-87
2023/02/22 05:31:44;;;;;;;8.30;3.90;;;;;;;8.34;100.00;100309.42;186515;1232;43774;-88
2023/02/22 05:35:47;;;;;;;14.70;5.10;;;;;;;8.35;100.00;100308.98;186148;1233;44749;-86
2023/02/22 05:39:54;;;;;;;12.70;4.60;;;;;;;8.38;100.00;100310.89;186263;1233;43626;-89
2023/02/22 05:43:57;;;;;;;18.80;6.70;;;;;;;8.45;100.00;100313.01;186309;1232;58048;-86
2023/02/22 05:47:59;;;;;;;10.80;4.40;;;;;;;8.53;100.00;100313.17;186508;1233;43729;-87
2023/02/22 05:52:01;;;;;;;7.40;4.40;;;;;;;8.56;100.00;100314.04;186186;1233;44054;-87
2023/02/22 05:56:03;;;;;;;9.30;4.10;;;;;;;8.62;100.00;100318.60;186265;1233;43861;-87
2023/02/22 06:00:07;;;;;;;19.40;4.60;;;;;;;8.66;100.00;100322.02;186340;1233;43983;-87
2023/02/22 06:04:09;;;;;;;10.40;4.40;;;;;;;8.74;100.00;100321.64;186122;1232;59249;-87
2023/02/22 06:08:11;;;;;;;9.00;4.40;;;;;;;8.76;100.00;100324.61;186281;1234;43770;-87
2023/02/22 06:12:12;;;;;;;13.70;5.20;;;;;;;8.72;99.99;100330.55;186314;1233;43753;-87
2023/02/22 06:16:14;;;;;;;21.70;5.30;;;;;;;8.66;99.98;100336.30;186279;1234;44107;-87
2023/02/22 06:20:19;;;;;;;11.90;4.50;;;;;;;8.72;100.00;100337.97;186388;1233;43723;-87
2023/02/22 06:24:22;;;;;;;16.10;5.50;;;;;;;8.82;100.00;100337.48;186173;1234;59313;-87
2023/02/22 06:28:25;;;;;;;10.10;4.70;;;;;;;8.79;100.00;100341.75;186480;1234;43989;-87
2023/02/22 06:32:32;;;;;;;14.40;5.50;;;;;;;8.67;99.99;100350.55;186442;1233;43699;-87
2023/02/22 06:36:34;;;;;;;14.30;5.30;;;;;;;8.59;100.00;100350.80;186335;1233;43940;-87
2023/02/22 06:40:37;;;;;;;12.00;4.70;;;;;;;8.62;100.00;100350.92;186316;1233;43774;-86
2023/02/22 06:44:39;;;;;;;10.20;5.70;;;;;;;8.63;100.00;100349.04;186400;1233;59443;-87
2023/02/22 06:48:41;;;;;;;13.80;6.70;;;;;;;8.72;100.00;100349.71;186428;1234;43833;-87
2023/02/22 06:52:43;;;;;;;12.20;7.70;;;;;;;8.80;100.00;100353.34;186289;1233;43790;-88
2023/02/22 06:56:46;;;;;;;16.40;6.80;;;;;;;8.94;100.00;100353.75;186175;1233;43826;-87
2023/02/22 07:00:48;;;;;;;12.80;6.40;;;;;;;9.16;100.00;100364.52;186561;1233;43967;-86
2023/02/22 07:04:50;;;;;;;12.70;6.70;;;;;;;9.35;100.00;100372.98;186257;1232;59234;-87
2023/02/22 07:08:53;;;;;;;18.70;6.70;;;;;;;9.47;100.00;100376.33;186141;1233;43619;-87
2023/02/22 07:12:55;;;;;;;11.80;5.30;;;;;;;9.58;100.00;100378.36;186571;1234;43960;-87
2023/02/22 07:16:58;;;;;;;14.40;6.20;;;;;;;9.67;100.00;100383.48;186191;1233;43903;-87
2023/02/22 07:21:00;;;;;;;30.10;8.60;;;;;;;9.80;99.88;100388.19;186299;1233;43677;-87
2023/02/22 07:25:08;;;;;;;24.10;9.20;;;;;;;9.89;98.69;100391.46;186248;1233;59628;-87
2023/02/22 07:29:10;;;;;;;27.50;12.20;;;;;;;9.92;98.06;100390.95;186343;1236;43925;-87
2023/02/22 07:33:12;;;;;;;19.00;12.10;;;;;;;10.02;98.79;100391.66;186231;1233;43945;-87
2023/02/22 07:37:14;;;;;;;25.90;10.30;;;;;;;10.06;96.82;100395.04;186383;1234;43848;-87
2023/02/22 07:41:16;;;;;;;20.90;10.70;;;;;;;10.09;96.76;100395.16;186541;1233;43701;-87
2023/02/22 07:45:19;;;;;;;23.70;10.60;;;;;;;10.17;96.27;100396.39;186201;1234;59404;-87
2023/02/22 07:49:20;;;;;;;17.70;9.90;;;;;;;10.23;96.13;100402.05;186259;1234;43996;-87
2023/02/22 07:53:28;;;;;;;16.90;9.10;;;;;;;10.28;95.64;100395.83;186284;1234;44049;-87
2023/02/22 07:57:30;;;;;;;16.20;8.60;;;;;;;10.19;93.47;100394.58;186271;1233;43953;-87
2023/02/22 08:01:32;;;;;;;20.30;9.90;;;;;;;9.89;94.41;100396.02;186228;1233;43989;-87
2023/02/22 08:05:37;;;;;;;109.50;75.60;;;;;;;9.85;96.19;100396.98;186291;1233;57193;-87
2023/02/22 08:09:39;;;;;;;21.00;11.10;;;;;;;9.90;96.91;100399.14;186270;1234;43601;-87
2023/02/22 08:13:42;;;;;;;25.00;20.70;;;;;;;10.00;97.16;100395.34;186199;1233;43900;-87
2023/02/22 08:17:44;;;;;;;43.70;13.40;;;;;;;10.11;96.71;100393.23;186464;1233;43869;-87
2023/02/22 08:21:46;;;;;;;14.80;8.30;;;;;;;10.22;95.93;100395.95;186220;1232;43595;-87
2023/02/22 08:25:48;;;;;;;22.50;8.10;;;;;;;10.26;94.78;100396.17;186257;1233;59750;-87
2023/02/22 08:29:50;;;;;;;22.10;11.30;;;;;;;10.27;94.11;100394.65;186439;1233;43702;-86
2023/02/22 08:33:52;;;;;;;12.80;7.20;;;;;;;10.32;94.73;100394.11;186321;1233;43928;-86
2023/02/22 08:38:01;;;;;;;26.20;8.60;;;;;;;10.43;94.33;100393.59;186404;1233;44008;-86
2023/02/22 08:42:03;;;;;;;19.30;7.90;;;;;;;10.71;94.51;100383.78;186406;1234;43603;-86
2023/02/22 08:46:05;;;;;;;20.70;8.30;;;;;;;10.88;92.14;100382.98;186199;1233;59299;-86
2023/02/22 08:50:09;;;;;;;15.30;7.20;;;;;;;10.95;91.75;100385.75;186529;1234;43710;-86
2023/02/22 08:54:11;;;;;;;12.40;6.20;;;;;;;11.08;90.80;100382.98;186281;1232;44149;-86
2023/02/22 08:58:13;;;;;;;19.30;6.30;;;;;;;11.20;89.14;100380.52;186269;1232;43756;-86
2023/02/22 09:02:17;;;;;;;19.20;8.70;;;;;;;11.28;88.47;100374.55;186418;1234;43959;-86
2023/02/22 09:06:19;;;;;;;11.30;6.10;;;;;;;11.34;88.22;100373.88;186638;1232;59482;-86
2023/02/22 09:10:25;;;;;;;27.20;6.80;;;;;;;11.44;87.68;100370.38;186343;1232;43691;-86
2023/02/22 09:14:27;;;;;;;13.10;7.60;;;;;;;11.52;86.69;100370.05;186334;1234;44094;-86
2023/02/22 09:18:29;;;;;;;14.40;6.50;;;;;;;11.69;85.69;100372.15;186204;1233;43716;-86
2023/02/22 09:22:45;;;;;;;16.00;6.90;;;;;;;11.73;83.88;100374.02;186567;1233;43716;-86
2023/02/22 09:26:52;;;;;;;20.70;6.90;;;;;;;11.76;82.47;100377.45;186263;1234;59597;-86
2023/02/22 09:30:55;;;;;;;17.20;7.70;;;;;;;11.77;82.38;100382.04;186347;1233;44051;-86
2023/02/22 09:34:57;;;;;;;23.70;7.40;;;;;;;11.86;83.01;100380.35;186353;1233;44762;-86
2023/02/22 09:38:59;;;;;;;19.40;7.50;;;;;;;11.96;82.23;100378.63;186138;1233;43840;-86
2023/02/22 09:43:29;;;;;;;11.40;6.80;;;;;;;11.96;81.41;100379.67;186292;1233;43920;-86
2023/02/22 09:47:40;;;;;;;18.20;7.50;;;;;;;11.90;80.40;100374.01;186400;1232;58051;-86
2023/02/22 09:51:49;;;;;;;16.30;7.50;;;;;;;11.73;80.05;100375.21;186256;1233;43812;-86
2023/02/22 09:55:52;;;;;;;16.60;7.80;;;;;;;11.60;79.63;100379.52;186203;1234;44109;-86
2023/02/22 10:00:12;;;;;;;75.70;38.80;;;;;;;11.61;81.23;100375.36;186320;1233;43672;-86
2023/02/22 10:04:35;;;;;;;17.10;9.30;;;;;;;11.41;79.47;100374.16;186264;1233;43632;-86
2023/02/22 10:08:37;;;;;;;86.30;47.80;;;;;;;11.32;80.43;100367.69;186243;1236;59123;-86
2023/02/22 10:12:58;;;;;;;34.50;20.90;;;;;;;11.27;79.68;100369.60;186370;1232;43765;-85
2023/02/22 10:17:22;;;;;;;17.50;9.30;;;;;;;11.22;80.69;100373.42;186248;1234;43734;-86
2023/02/22 10:21:52;;;;;;;19.00;10.10;;;;;;;11.27;80.21;100372.44;186337;1233;43747;-86
2023/02/22 10:26:19;;;;;;;16.00;8.50;;;;;;;11.30;79.74;100368.66;186701;1233;43721;-86
2023/02/22 10:30:23;;;;;;;14.70;9.20;;;;;;;11.34;79.46;100370.16;186316;1233;59239;-86
2023/02/22 10:34:35;;;;;;;14.90;7.30;;;;;;;11.12;78.78;100370.68;186291;1233;43787;-86
2023/02/22 10:38:38;;;;;;;26.80;8.70;;;;;;;11.02;78.49;100367.63;186184;1232;44191;-85
2023/02/22 10:42:39;;;;;;;25.70;9.70;;;;;;;11.13;79.17;100365.98;186267;1232;43790;-85
2023/02/22 10:46:42;;;;;;;15.70;6.20;;;;;;;11.28;78.37;100364.25;186268;1233;43691;-86
2023/02/22 10:50:45;;;;;;;17.20;9.50;;;;;;;11.36;78.78;100365.40;186491;1232;57795;-85
2023/02/22 10:54:50;;;;;;;15.90;8.30;;;;;;;11.37;78.06;100367.80;186247;1233;44059;-86
2023/02/22 10:59:06;;;;;;;17.10;7.40;;;;;;;11.40;77.54;100365.73;186256;1234;43676;-86
2023/02/22 11:03:19;;;;;;;24.70;8.60;;;;;;;11.43;76.18;100362.45;186273;1232;43794;-86
2023/02/22 11:07:30;;;;;;;13.40;7.60;;;;;;;11.47;76.26;100361.61;186280;1234;43972;-86
2023/02/22 11:11:32;;;;;;;12.60;6.70;;;;;;;11.51;75.85;100358.77;186235;1234;59257;-86
2023/02/22 11:15:34;;;;;;;14.00;5.20;;;;;;;11.54;75.46;100356.55;186397;1233;43987;-86
2023/02/22 11:19:37;;;;;;;14.20;6.00;;;;;;;11.58;75.63;100354.45;186359;1232;43892;-86
2023/02/22 11:23:42;;;;;;;10.90;5.30;;;;;;;11.64;74.97;100347.27;186321;1234;43739;-86
2023/02/22 11:27:46;;;;;;;13.50;4.90;;;;;;;11.77;74.47;100346.28;186341;1233;43633;-86
2023/02/22 11:31:49;;;;;;;11.10;5.20;;;;;;;11.90;72.97;100342.73;186379;1233;57347;-86
2023/02/22 11:36:08;;;;;;;19.30;7.10;;;;;;;11.95;72.71;100333.23;186322;1232;44035;-86
2023/02/22 11:40:21;;;;;;;27.80;7.00;;;;;;;11.99;71.67;100329.48;186290;1233;43689;-86
2023/02/22 11:44:26;;;;;;;28.70;7.50;;;;;;;12.05;71.38;100327.95;186302;1234;43701;-86
2023/02/22 11:48:35;;;;;;;18.50;6.10;;;;;;;12.14;71.43;100328.57;186399;1234;43702;-86
2023/02/22 11:52:48;;;;;;;16.50;7.30;;;;;;;12.28;71.05;100329.14;186550;1232;58518;-86
2023/02/22 11:56:59;;;;;;;20.90;5.80;;;;;;;12.26;69.87;100327.85;186318;1232;43730;-86
2023/02/22 12:01:30;;;;;;;10.00;5.90;;;;;;;12.29;70.65;100328.52;186284;1233;43637;-86
2023/02/22 12:05:44;;;;;;;18.40;6.30;;;;;;;12.34;70.22;100327.91;186299;1234;44006;-86
2023/02/22 12:10:07;;;;;;;16.70;7.20;;;;;;;12.39;69.82;100328.11;186574;1233;43959;-86
2023/02/22 12:14:22;;;;;;;17.70;6.40;;;;;;;12.49;68.85;100326.92;186339;1232;57015;-86
2023/02/22 12:18:34;;;;;;;18.20;6.10;;;;;;;12.57;68.70;100323.20;186508;1233;43583;-86
2023/02/22 12:22:46;;;;;;;15.60;6.70;;;;;;;12.59;67.77;100323.54;186576;1233;43973;-85
2023/02/22 12:27:00;;;;;;;24.60;8.20;;;;;;;12.56;67.13;100321.67;186350;1233;43790;-86
2023/02/22 12:31:13;;;;;;;22.70;6.30;;;;;;;12.55;67.25;100318.87;186357;1233;43678;-86
2023/02/22 12:35:22;;;;;;;15.80;6.70;;;;;;;12.55;67.38;100315.02;186378;1234;59957;-86
2023/02/22 12:39:49;;;;;;;13.10;6.40;;;;;;;12.50;66.46;100315.64;186435;1233;43659;-84
2023/02/22 12:44:09;;;;;;;29.60;7.60;;;;;;;12.48;67.07;100311.94;186364;1232;43737;-85
2023/02/22 12:48:32;;;;;;;18.60;7.70;;;;;;;12.47;67.11;100311.64;186322;1232;43676;-86
2023/02/22 12:52:54;;;;;;;14.70;6.90;;;;;;;12.42;66.93;100312.08;186431;1233;43971;-86
2023/02/22 12:57:20;;;;;;;21.10;6.30;;;;;;;12.41;68.04;100312.33;186310;1233;58170;-86
2023/02/22 13:01:28;;;;;;;14.80;7.60;;;;;;;12.45;67.66;100306.64;186344;1232;43710;-86
2023/02/22 13:05:38;;;;;;;17.60;6.70;;;;;;;12.45;68.38;100306.52;186344;1233;43940;-86
2023/02/22 13:09:58;;;;;;;16.90;5.70;;;;;;;12.32;69.56;100306.04;186256;1233;43879;-86
2023/02/22 13:14:06;;;;;;;11.30;6.50;;;;;;;12.42;69.76;100302.65;186614;1234;43996;-86
2023/02/22 13:18:17;;;;;;;17.30;6.60;;;;;;;12.45;68.43;100303.13;186477;1233;59432;-86
2023/02/22 13:22:46;;;;;;;34.70;19.30;;;;;;;12.32;68.82;100303.52;186374;1234;43780;-86
2023/02/22 13:27:05;;;;;;;32.80;17.40;;;;;;;12.40;68.77;100301.37;186351;1232;43703;-86
2023/02/22 13:31:14;;;;;;;15.60;6.60;;;;;;;12.23;69.17;100301.79;186174;1233;43813;-86
2023/02/22 13:35:28;;;;;;;21.20;9.60;;;;;;;12.12;69.39;100300.32;186330;1234;43707;-86
2023/02/22 13:40:05;;;;;;;16.60;9.70;;;;;;;12.03;69.95;100298.55;186531;1234;57923;-86
2023/02/22 13:44:40;;;;;;;29.00;6.60;;;;;;;12.02;68.34;100296.91;186550;1233;43966;-86
2023/02/22 13:48:53;;;;;;;17.50;13.10;;;;;;;12.02;69.06;100294.78;186723;1232;43641;-86
2023/02/22 13:52:58;;;;;;;17.10;5.80;;;;;;;12.05;68.39;100289.16;186376;1233;43947;-86
2023/02/22 13:57:01;;;;;;;28.40;7.70;;;;;;;12.09;69.07;100286.92;186313;1237;43767;-81
2023/02/22 14:01:03;;;;;;;15.00;5.50;;;;;;;12.11;69.18;100287.24;186501;1232;57841;-81
2023/02/22 14:05:33;;;;;;;12.20;6.00;;;;;;;12.07;68.71;100289.84;186249;1233;43773;-81
2023/02/22 14:09:49;;;;;;;13.10;5.30;;;;;;;12.06;68.36;100288.06;186210;1234;43998;-81
2023/02/22 14:13:52;;;;;;;12.90;7.70;;;;;;;12.00;68.54;100284.77;186148;1234;43750;-81
2023/02/22 14:17:59;;;;;;;13.00;7.50;;;;;;;11.93;69.64;100284.14;186383;1232;44150;-81
2023/02/22 14:22:04;;;;;;;16.50;5.90;;;;;;;11.89;69.77;100288.79;186153;1232;58102;-81
2023/02/22 14:26:26;;;;;;;13.90;5.90;;;;;;;11.92;70.07;100289.95;186128;1234;43925;-81
2023/02/22 14:30:37;;;;;;;16.70;7.20;;;;;;;11.93;71.11;100290.88;186477;1233;43817;-81
2023/02/22 15:19:02;;;;;;;132.40;67.20;;;;;;;10.93;76.30;100283.38;186724;1234;44065;-90
2023/02/22 15:23:04;;;;;;;95.20;41.50;;;;;;;10.69;78.85;100280.70;186343;1233;43842;-89
2023/02/22 15:27:18;;;;;;;27.40;13.30;;;;;;;10.47;79.90;100283.98;186352;1233;43807;-90
2023/02/22 15:31:33;;;;;;;18.50;9.40;;;;;;;10.36;80.27;100277.53;186422;1234;43680;-90
2023/02/22 15:35:36;;;;;;;14.20;7.00;;;;;;;10.28;79.96;100277.45;186365;1233;59972;-89
2023/02/22 15:39:42;;;;;;;18.70;10.80;;;;;;;10.09;80.50;100279.16;186206;1232;43866;-89
2023/02/22 15:43:44;;;;;;;20.80;12.00;;;;;;;9.94;81.42;100276.63;186005;1234;242351;-89
2023/02/22 15:47:51;;;;;;;18.80;10.90;;;;;;;9.73;83.14;100275.58;186535;1233;43902;-90
2023/02/22 15:52:08;;;;;;;22.90;11.50;;;;;;;9.65;84.30;100275.29;186540;1233;43766;-89
2023/02/22 15:56:24;;;;;;;27.10;8.00;;;;;;;9.69;83.83;100274.48;186239;1233;59456;-88
2023/02/22 16:00:34;;;;;;;18.90;9.90;;;;;;;9.64;85.20;100273.30;186245;1233;43646;-89
2023/02/22 16:09:16;;;;;;;28.40;9.80;;;;;;;9.58;85.55;100284.71;187046;1233;43608;-71
2023/02/22 16:45:35;;;;;;;15.00;9.10;;;;;;;10.10;83.42;100302.26;187336;1234;57810;-72
2023/02/22 16:49:37;;;;;;;19.10;6.60;;;;;;;10.05;82.29;100304.23;187054;1234;43258;-71
2023/02/22 16:53:38;;;;;;;20.10;10.90;;;;;;;9.98;80.83;100305.49;187344;1234;43087;-73
2023/02/22 16:58:33;;;;;;;21.20;11.40;;;;;;;9.91;79.15;100310.31;187040;1234;43560;-70
2023/02/22 17:02:34;;;;;;;21.50;13.00;;;;;;;9.80;78.82;100310.45;187258;1234;43546;-70
2023/02/22 17:06:43;;;;;;;27.70;14.00;;;;;;;9.62;79.17;100315.38;187018;1234;58097;-71
2023/02/22 17:10:50;;;;;;;23.60;13.30;;;;;;;9.49;80.72;100320.76;187291;1234;43595;-70
2023/02/22 17:20:00;;;;;;;21.50;10.40;;;;;;;9.22;83.29;100318.52;187292;1234;43658;-72
2023/02/22 17:25:07;;;;;;;10.90;7.80;;;;;;;9.16;83.78;100321.52;187255;1234;43700;-70
2023/02/22 17:29:08;;;;;;;17.70;8.40;;;;;;;9.06;83.83;100321.40;187342;1233;57891;-70
2023/02/22 17:33:16;;;;;;;14.70;9.00;;;;;;;8.96;83.69;100319.95;187058;1234;43593;-71
2023/02/22 17:37:44;;;;;;;19.20;9.60;;;;;;;8.89;84.38;100323.01;187050;1234;43570;-71
2023/02/22 17:41:53;;;;;;;20.00;11.20;;;;;;;8.80;84.92;100323.25;187051;1233;43630;-70
2023/02/22 17:45:56;;;;;;;20.80;11.40;;;;;;;8.72;84.69;100322.61;186702;1234;43943;-70
2023/02/22 17:49:57;;;;;;;23.80;10.80;;;;;;;8.71;83.62;100318.97;187368;1234;59059;-70
2023/02/22 17:53:59;;;;;;;28.60;11.50;;;;;;;8.68;83.54;100321.34;186812;1234;43050;-70
2023/02/22 17:58:00;;;;;;;22.80;11.80;;;;;;;8.60;83.84;100321.17;187291;1234;43634;-70
2023/02/22 18:02:02;;;;;;;26.00;12.90;;;;;;;8.54;83.97;100316.66;187235;1234;43107;-70
2023/02/22 18:06:04;;;;;;;33.80;13.50;;;;;;;8.47;83.29;100312.73;187183;1234;43648;-71
2023/02/22 18:10:12;;;;;;;32.50;15.90;;;;;;;8.41;83.00;100309.77;186766;1234;57913;-70
2023/02/22 18:14:13;;;;;;;43.40;15.40;;;;;;;8.33;82.82;100310.51;187023;1234;43759;-70
2023/02/22 18:18:16;;;;;;;38.20;24.40;;;;;;;8.23;82.29;100308.92;186942;1233;43741;-70
2023/02/22 18:22:21;;;;;;;46.30;26.30;;;;;;;8.10;81.70;100310.59;187036;1234;43042;-71
2023/02/22 18:26:24;;;;;;;59.60;27.90;;;;;;;7.95;81.98;100312.49;186822;1234;43751;-71
2023/02/22 18:30:26;;;;;;;33.50;18.70;;;;;;;7.88;81.99;100311.60;186803;1235;58650;-71
2023/02/22 18:34:39;;;;;;;29.70;16.40;;;;;;;7.83;82.27;100312.06;187327;1235;43607;-71
2023/02/22 18:38:42;;;;;;;31.60;18.50;;;;;;;7.78;82.34;100314.36;187136;1234;43718;-73
2023/02/22 18:42:45;;;;;;;29.90;16.90;;;;;;;7.70;82.36;100309.80;186880;1235;43045;-72
2023/02/22 18:46:46;;;;;;;33.90;19.60;;;;;;;7.68;82.76;100312.81;186966;1235;43659;-70
2023/02/22 18:51:11;;;;;;;38.50;22.40;;;;;;;7.67;82.99;100312.84;187043;1234;58219;-70
2023/02/22 18:55:23;;;;;;;30.00;20.80;;;;;;;7.63;83.53;100310.66;187002;1235;43563;-71
2023/02/22 18:59:24;;;;;;;56.00;23.60;;;;;;;7.53;84.40;100307.06;186814;1235;43631;-71
2023/02/22 19:03:27;;;;;;;53.00;28.50;;;;;;;7.39;85.10;100306.81;186800;1234;43667;-70
2023/02/22 19:07:28;;;;;;;44.50;28.40;;;;;;;7.30;85.66;100302.69;186833;1235;43133;-71
2023/02/22 19:11:35;;;;;;;33.10;18.30;;;;;;;7.19;85.97;100304.48;186810;1235;57830;-70
2023/02/22 19:16:06;;;;;;;43.50;17.20;;;;;;;7.12;85.29;100306.84;186835;1233;43016;-70
2023/02/22 19:20:11;;;;;;;37.00;17.50;;;;;;;7.09;84.45;100303.67;186981;1235;42969;-70
2023/02/22 19:24:12;;;;;;;36.50;16.30;;;;;;;7.16;84.01;100302.02;187269;1234;43650;-70
2023/02/22 19:28:40;;;;;;;24.50;14.20;;;;;;;7.20;83.92;100300.30;187270;1235;43574;-70
2023/02/22 19:32:46;;;;;;;31.20;15.60;;;;;;;7.26;83.96;100306.06;187012;1233;59269;-70
2023/02/22 19:37:46;;;;;;;44.30;17.90;;;;;;;7.30;83.53;100303.20;186843;1234;43475;-71
2023/02/22 19:41:49;;;;;;;32.20;16.00;;;;;;;7.34;83.45;100308.55;187352;1233;43011;-71
2023/02/22 19:45:51;;;;;;;28.60;16.90;;;;;;;7.37;83.79;100306.08;187399;1235;42958;-73
2023/02/22 19:49:54;;;;;;;41.20;18.00;;;;;;;7.39;83.87;100308.04;187258;1234;43383;-71
2023/02/22 19:54:01;;;;;;;29.90;18.70;;;;;;;7.40;85.59;100306.04;187065;1234;57918;-70
2023/02/22 19:58:02;;;;;;;32.30;16.20;;;;;;;7.32;84.87;100304.11;186818;1233;43719;-71
2023/02/22 20:02:04;;;;;;;27.60;15.40;;;;;;;7.30;82.32;100309.38;187014;1233;43597;-71
2023/02/22 20:06:08;;;;;;;24.60;15.20;;;;;;;7.36;83.63;100305.64;186958;1235;43640;-71
2023/02/22 20:10:11;;;;;;;32.20;18.20;;;;;;;7.34;84.82;100305.73;187207;1233;43601;-70
2023/02/22 20:14:16;;;;;;;34.90;18.40;;;;;;;7.27;85.66;100303.02;187001;1235;57920;-70
2023/02/22 20:18:21;;;;;;;30.90;15.20;;;;;;;7.22;85.66;100303.33;186833;1235;43597;-71